Time;durP1;ratioP1;P1;durP2;ratioP2;P2;SDS_P1;SDS_P2;PMS_P1;PMS_P2;Temp;Humidity;BMP_temperature;BMP_pressure;BME280_temperature;BME280_humidity;BME280_pressure;Samples;Min_cycle;Max_cycle;Signal;HPM_P1;HPM_P2
2023/03/23 00:02:13;;;;;;;;;;;;;;;;;;5070785;28;20002;-59
2023/03/23 00:04:38;;;;;;;;;;;;;;;;;;5070700;28;19952;-62
2023/03/23 00:07:04;;;;;;;;;;;;;;;;;;5069832;28;19944;-60
2023/03/23 00:09:34;;;;;;;;;;;;;;;;;;5049785;28;20360;-59
2023/03/23 00:12:05;;;;;;;;;;;;;;;;;;5067332;28;20287;-57
2023/03/23 00:14:40;;;;;;;;;;;;;;;;;;5081780;28;19915;-62
2023/03/23 00:17:06;;;;;;;;;;;;;;;;;;5073060;28;19904;-59
2023/03/23 00:19:34;;;;;;;;;;;;;;;;;;5070506;28;19909;-56
2023/03/23 00:22:00;;;;;;;;;;;;;;;;;;5064323;28;19909;-62
2023/03/23 00:24:26;;;;;;;;;;;;;;;;;;5075850;22;19927;-66
2023/03/23 00:26:52;;;;;;;;;;;;;;;;;;5092053;28;19904;-67
2023/03/23 00:29:19;;;;;;;;;;;;;;;;;;5091731;28;19911;-67
2023/03/23 00:31:48;;;;;;;;;;;;;;;;;;5091764;28;19943;-66
2023/03/23 00:34:19;;;;;;;;;;;;;;;;;;5087124;28;19906;-66
2023/03/23 00:36:44;;;;;;;;;;;;;;;;;;5073562;28;19974;-67
2023/03/23 00:39:11;;;;;;;;;;;;;;;;;;5090747;28;19908;-67
2023/03/23 00:41:38;;;;;;;;;;;;;;;;;;5091011;28;20279;-66
2023/03/23 00:44:04;;;;;;;;;;;;;;;;;;5091699;28;20341;-67
2023/03/23 00:46:29;;;;;;;;;;;;;;;;;;5092268;28;19911;-65
2023/03/23 00:48:56;;;;;;;;;;;;;;;;;;5092281;28;19952;-66
2023/03/23 00:51:22;;;;;;;;;;;;;;;;;;5092514;28;20419;-66
2023/03/23 00:53:48;;;;;;;;;;;;;;;;;;5090954;28;19943;-66
2023/03/23 00:56:14;;;;;;;;;;;;;;;;;;5092190;28;19911;-65
2023/03/23 00:58:40;;;;;;;;;;;;;;;;;;5092388;28;19912;-66
2023/03/23 01:01:06;;;;;;;;;;;;;;;;;;5092379;28;20401;-65
2023/03/23 01:03:32;;;;;;;;;;;;;;;;;;5091111;28;20276;-66
2023/03/23 01:05:57;;;;;;;;;;;;;;;;;;5092288;28;19910;-66
2023/03/23 01:08:23;;;;;;;;;;;;;;;;;;5092202;28;19969;-67
2023/03/23 01:10:49;;;;;;;;;;;;;;;;;;5092287;28;19904;-65
2023/03/23 01:13:15;;;;;;;;;;;;;;;;;;5092183;28;19904;-66
2023/03/23 01:15:41;;;;;;;;;;;;;;;;;;5092514;28;19999;-65
2023/03/23 01:18:07;;;;;;;;;;;;;;;;;;5091286;28;19957;-65
2023/03/23 01:20:33;;;;;;;;;;;;;;;;;;5091030;28;20236;-65
2023/03/23 01:23:02;;;;;;;;;;;;;;;;;;5092411;28;19904;-66
2023/03/23 01:25:28;;;;;;;;;;;;;;;;;;5092133;28;19915;-65
2023/03/23 01:27:54;;;;;;;;;;;;;;;;;;5091028;28;19907;-66
2023/03/23 01:30:20;;;;;;;;;;;;;;;;;;5090694;28;19904;-65
2023/03/23 01:32:46;;;;;;;;;;;;;;;;;;5090823;28;20331;-65
2023/03/23 01:35:12;;;;;;;;;;;;;;;;;;5091495;28;19904;-65
2023/03/23 01:37:38;;;;;;;;;;;;;;;;;;5090474;28;19908;-65
2023/03/23 01:40:04;;;;;;;;;;;;;;;;;;5092517;28;19907;-65
2023/03/23 01:42:30;;;;;;;;;;;;;;;;;;5090380;28;19939;-65
2023/03/23 01:44:58;;;;;;;;;;;;;;;;;;5090935;28;19911;-65
2023/03/23 01:47:26;;;;;;;;;;;;;;;;;;5079892;28;19909;-65
2023/03/23 01:49:52;;;;;;;;;;;;;;;;;;5090073;28;19986;-65
2023/03/23 01:52:18;;;;;;;;;;;;;;;;;;5091267;28;19904;-65
2023/03/23 01:54:44;;;;;;;;;;;;;;;;;;5089637;28;20320;-65
2023/03/23 01:57:10;;;;;;;;;;;;;;;;;;5090360;28;19984;-65
2023/03/23 01:59:36;;;;;;;;;;;;;;;;;;5091906;28;20257;-65
2023/03/23 02:02:02;;;;;;;;;;;;;;;;;;5091732;28;19904;-64
2023/03/23 02:04:28;;;;;;;;;;;;;;;;;;5091691;28;19914;-66
2023/03/23 02:06:56;;;;;;;;;;;;;;;;;;5092063;28;19904;-65
2023/03/23 02:09:22;;;;;;;;;;;;;;;;;;5091436;28;19947;-64
2023/03/23 02:11:49;;;;;;;;;;;;;;;;;;5091512;28;19903;-64
2023/03/23 02:14:15;;;;;;;;;;;;;;;;;;5091457;28;19926;-66
2023/03/23 02:16:42;;;;;;;;;;;;;;;;;;5090964;28;19904;-66
2023/03/23 02:19:08;;;;;;;;;;;;;;;;;;5091743;28;19958;-66
2023/03/23 02:21:34;;;;;;;;;;;;;;;;;;5090790;28;20344;-66
2023/03/23 02:24:00;;;;;;;;;;;;;;;;;;5090356;28;19904;-66
2023/03/23 02:26:26;;;;;;;;;;;;;;;;;;5092452;28;19908;-65
2023/03/23 02:28:52;;;;;;;;;;;;;;;;;;5092261;28;20257;-65
2023/03/23 02:31:17;;;;;;;;;;;;;;;;;;5091879;28;20276;-65
2023/03/23 02:33:43;;;;;;;;;;;;;;;;;;5093302;28;19908;-66
2023/03/23 02:36:09;;;;;;;;;;;;;;;;;;5093693;28;19907;-65
2023/03/23 02:38:35;;;;;;;;;;;;;;;;;;5095153;28;19915;-67
2023/03/23 02:41:01;;;;;;;;;;;;;;;;;;5077380;28;20368;-67
2023/03/23 02:43:27;;;;;;;;;;;;;;;;;;5076795;28;19985;-66
2023/03/23 02:45:53;;;;;;;;;;;;;;;;;;5077083;28;20480;-64
2023/03/23 02:48:19;;;;;;;;;;;;;;;;;;5095173;28;19904;-63
2023/03/23 02:50:45;;;;;;;;;;;;;;;;;;5095059;28;19927;-65
2023/03/23 02:53:11;;;;;;;;;;;;;;;;;;5094928;28;19951;-66
2023/03/23 02:55:40;;;;;;;;;;;;;;;;;;5076810;28;19904;-65
2023/03/23 02:58:06;;;;;;;;;;;;;;;;;;5090789;28;19916;-65
2023/03/23 03:00:32;;;;;;;;;;;;;;;;;;5076242;28;19908;-66
2023/03/23 03:02:57;;;;;;;;;;;;;;;;;;5094182;28;19904;-65
2023/03/23 03:05:24;;;;;;;;;;;;;;;;;;5094186;28;19946;-66
2023/03/23 03:07:50;;;;;;;;;;;;;;;;;;5094416;28;20355;-66
2023/03/23 03:10:15;;;;;;;;;;;;;;;;;;5094327;28;20029;-66
2023/03/23 03:12:41;;;;;;;;;;;;;;;;;;5091763;28;19916;-66
2023/03/23 03:15:07;;;;;;;;;;;;;;;;;;5092839;28;19957;-68
2023/03/23 03:17:33;;;;;;;;;;;;;;;;;;5094466;28;19915;-67
2023/03/23 03:20:01;;;;;;;;;;;;;;;;;;5094720;28;19926;-66
2023/03/23 03:22:28;;;;;;;;;;;;;;;;;;5092819;28;20021;-67
2023/03/23 03:24:56;;;;;;;;;;;;;;;;;;5092314;28;19929;-66
2023/03/23 03:27:23;;;;;;;;;;;;;;;;;;5092843;28;19918;-66
2023/03/23 03:29:50;;;;;;;;;;;;;;;;;;5094266;28;20337;-67
2023/03/23 03:32:16;;;;;;;;;;;;;;;;;;5093957;28;19939;-64
2023/03/23 03:34:42;;;;;;;;;;;;;;;;;;5092662;28;20378;-65
2023/03/23 03:37:08;;;;;;;;;;;;;;;;;;5092754;28;19998;-66
2023/03/23 03:39:34;;;;;;;;;;;;;;;;;;5093667;28;19914;-66
2023/03/23 03:42:00;;;;;;;;;;;;;;;;;;5092402;28;20317;-68
2023/03/23 03:44:26;;;;;;;;;;;;;;;;;;5093128;28;19904;-66
2023/03/23 03:46:52;;;;;;;;;;;;;;;;;;5092305;28;19904;-65
2023/03/23 03:49:18;;;;;;;;;;;;;;;;;;5092327;28;19911;-65
2023/03/23 03:51:44;;;;;;;;;;;;;;;;;;5092522;28;20233;-65
2023/03/23 03:54:10;;;;;;;;;;;;;;;;;;5093115;28;19911;-65
2023/03/23 03:56:40;;;;;;;;;;;;;;;;;;5093497;28;19961;-65
2023/03/23 03:59:06;;;;;;;;;;;;;;;;;;5092000;28;19919;-65
2023/03/23 04:01:33;;;;;;;;;;;;;;;;;;5092112;28;20417;-64
2023/03/23 04:03:58;;;;;;;;;;;;;;;;;;5092719;28;20287;-66
2023/03/23 04:06:27;;;;;;;;;;;;;;;;;;5091511;28;19983;-65
2023/03/23 04:08:55;;;;;;;;;;;;;;;;;;5092879;28;19958;-65
2023/03/23 04:11:20;;;;;;;;;;;;;;;;;;5092926;28;19983;-66
2023/03/23 04:13:46;;;;;;;;;;;;;;;;;;5091304;28;20366;-66
2023/03/23 04:16:12;;;;;;;;;;;;;;;;;;5092828;28;19912;-66
2023/03/23 04:18:38;;;;;;;;;;;;;;;;;;5092443;28;19908;-66
2023/03/23 04:21:04;;;;;;;;;;;;;;;;;;5091341;28;19904;-65
2023/03/23 04:23:33;;;;;;;;;;;;;;;;;;5092571;28;19950;-66
2023/03/23 04:25:59;;;;;;;;;;;;;;;;;;5092760;28;19912;-66
2023/03/23 04:28:24;;;;;;;;;;;;;;;;;;5092620;28;20335;-65
2023/03/23 04:30:52;;;;;;;;;;;;;;;;;;5091375;28;19957;-66
2023/03/23 04:33:18;;;;;;;;;;;;;;;;;;5092328;28;20002;-66
2023/03/23 04:35:45;;;;;;;;;;;;;;;;;;5092758;28;19985;-66
2023/03/23 04:38:11;;;;;;;;;;;;;;;;;;5092439;28;19908;-65
2023/03/23 04:40:37;;;;;;;;;;;;;;;;;;5091018;28;20011;-66
2023/03/23 04:43:07;;;;;;;;;;;;;;;;;;5092104;28;19946;-66
2023/03/23 04:45:33;;;;;;;;;;;;;;;;;;5092411;28;19904;-65
2023/03/23 04:47:58;;;;;;;;;;;;;;;;;;5091033;28;19949;-67
2023/03/23 04:50:24;;;;;;;;;;;;;;;;;;5090946;28;19962;-66
2023/03/23 04:52:51;;;;;;;;;;;;;;;;;;5092282;28;19911;-66
2023/03/23 04:55:17;;;;;;;;;;;;;;;;;;5091316;28;19965;-66
2023/03/23 04:57:43;;;;;;;;;;;;;;;;;;5090793;28;19911;-67
2023/03/23 05:00:16;;;;;;;;;;;;;;;;;;5092355;28;19987;-66
2023/03/23 05:02:42;;;;;;;;;;;;;;;;;;5092549;28;20325;-65
2023/03/23 05:05:07;;;;;;;;;;;;;;;;;;5092133;28;19908;-66
2023/03/23 05:07:34;;;;;;;;;;;;;;;;;;5091097;28;19904;-66
2023/03/23 05:10:00;;;;;;;;;;;;;;;;;;5090930;28;19904;-66
2023/03/23 05:12:26;;;;;;;;;;;;;;;;;;5091952;28;19949;-65
2023/03/23 05:14:52;;;;;;;;;;;;;;;;;;5090412;28;19923;-67
2023/03/23 05:17:18;;;;;;;;;;;;;;;;;;5091575;28;19904;-66
2023/03/23 05:19:47;;;;;;;;;;;;;;;;;;5090363;28;20477;-67
2023/03/23 05:22:14;;;;;;;;;;;;;;;;;;5090454;28;20280;-66
2023/03/23 05:24:40;;;;;;;;;;;;;;;;;;5090109;28;20326;-66
2023/03/23 05:27:07;;;;;;;;;;;;;;;;;;5090253;28;19908;-66
2023/03/23 05:29:35;;;;;;;;;;;;;;;;;;5090610;28;19907;-66
2023/03/23 05:32:02;;;;;;;;;;;;;;;;;;5091529;28;19910;-66
2023/03/23 05:34:28;;;;;;;;;;;;;;;;;;5089977;28;19908;-67
2023/03/23 05:36:55;;;;;;;;;;;;;;;;;;5091828;28;19904;-66
2023/03/23 05:39:21;;;;;;;;;;;;;;;;;;5091437;28;19952;-66
2023/03/23 05:41:46;;;;;;;;;;;;;;;;;;5091108;28;19962;-68
2023/03/23 05:44:15;;;;;;;;;;;;;;;;;;5091120;28;19957;-67
2023/03/23 05:46:41;;;;;;;;;;;;;;;;;;5091242;28;19912;-67
2023/03/23 05:49:08;;;;;;;;;;;;;;;;;;5090297;28;20318;-66
2023/03/23 05:51:34;;;;;;;;;;;;;;;;;;5089848;28;19904;-66
2023/03/23 05:54:00;;;;;;;;;;;;;;;;;;5089664;28;19904;-66
2023/03/23 05:56:26;;;;;;;;;;;;;;;;;;5091244;28;20351;-65
2023/03/23 05:58:53;;;;;;;;;;;;;;;;;;5089726;28;19908;-67
2023/03/23 06:01:19;;;;;;;;;;;;;;;;;;5091339;28;19967;-66
2023/03/23 06:03:45;;;;;;;;;;;;;;;;;;5089645;28;19931;-65
2023/03/23 06:06:11;;;;;;;;;;;;;;;;;;5091103;28;19926;-66
2023/03/23 06:08:37;;;;;;;;;;;;;;;;;;5088806;28;19904;-66
2023/03/23 06:11:03;;;;;;;;;;;;;;;;;;5090165;28;19904;-65
2023/03/23 06:13:29;;;;;;;;;;;;;;;;;;5089481;28;19954;-66
2023/03/23 06:15:57;;;;;;;;;;;;;;;;;;5090786;28;19994;-66
2023/03/23 06:18:23;;;;;;;;;;;;;;;;;;5089363;28;19961;-63
2023/03/23 06:20:49;;;;;;;;;;;;;;;;;;5090523;28;20360;-66
2023/03/23 06:23:15;;;;;;;;;;;;;;;;;;5089029;28;19911;-65
2023/03/23 06:25:41;;;;;;;;;;;;;;;;;;5094766;22;19943;-61
2023/03/23 06:28:09;;;;;;;;;;;;;;;;;;5068476;28;20037;-60
2023/03/23 06:30:35;;;;;;;;;;;;;;;;;;5070290;28;20321;-62
2023/03/23 06:33:02;;;;;;;;;;;;;;;;;;5070266;28;19916;-62
2023/03/23 06:35:28;;;;;;;;;;;;;;;;;;5071892;28;19909;-60
2023/03/23 06:37:53;;;;;;;;;;;;;;;;;;5040731;28;19920;-62
2023/03/23 06:40:21;;;;;;;;;;;;;;;;;;5051075;28;19904;-62
2023/03/23 06:42:46;;;;;;;;;;;;;;;;;;5051339;28;19954;-61
2023/03/23 06:45:12;;;;;;;;;;;;;;;;;;5050868;28;19908;-61
2023/03/23 06:47:38;;;;;;;;;;;;;;;;;;5050762;28;19960;-61
2023/03/23 06:50:04;;;;;;;;;;;;;;;;;;5051135;28;20335;-60
2023/03/23 06:52:31;;;;;;;;;;;;;;;;;;5050854;28;19968;-61
2023/03/23 06:54:57;;;;;;;;;;;;;;;;;;5032906;28;19905;-61
2023/03/23 06:57:23;;;;;;;;;;;;;;;;;;5032881;28;19911;-59
2023/03/23 06:59:49;;;;;;;;;;;;;;;;;;5050527;28;20018;-59
2023/03/23 07:02:15;;;;;;;;;;;;;;;;;;5053164;28;19904;-60
2023/03/23 07:04:40;;;;;;;;;;;;;;;;;;5070783;28;19904;-59
2023/03/23 07:07:07;;;;;;;;;;;;;;;;;;5053871;28;19908;-59
2023/03/23 07:09:32;;;;;;;;;;;;;;;;;;5072508;28;20013;-62
2023/03/23 07:11:59;;;;;;;;;;;;;;;;;;5070599;28;19904;-60
2023/03/23 07:14:24;;;;;;;;;;;;;;;;;;5052733;28;20334;-60
2023/03/23 07:16:51;;;;;;;;;;;;;;;;;;5070666;28;19908;-63
2023/03/23 07:19:17;;;;;;;;;;;;;;;;;;5072304;28;19954;-62
2023/03/23 07:21:43;;;;;;;;;;;;;;;;;;5074584;28;19912;-62
2023/03/23 07:24:08;;;;;;;;;;;;;;;;;;5055743;28;19908;-63
2023/03/23 07:26:35;;;;;;;;;;;;;;;;;;5073870;28;20539;-60
2023/03/23 07:29:01;;;;;;;;;;;;;;;;;;5073788;28;19953;-63
2023/03/23 07:31:27;;;;;;;;;;;;;;;;;;5056703;28;20353;-62
2023/03/23 07:33:53;;;;;;;;;;;;;;;;;;5053609;28;19905;-63
2023/03/23 07:36:19;;;;;;;;;;;;;;;;;;5053999;28;19908;-60
2023/03/23 07:38:45;;;;;;;;;;;;;;;;;;5053797;28;19909;-61
2023/03/23 07:41:11;;;;;;;;;;;;;;;;;;5036094;28;19904;-59
2023/03/23 07:43:37;;;;;;;;;;;;;;;;;;5053775;28;20361;-60
2023/03/23 07:46:03;;;;;;;;;;;;;;;;;;5053989;28;19951;-58
2023/03/23 07:48:29;;;;;;;;;;;;;;;;;;5053692;28;19909;-62
2023/03/23 07:50:55;;;;;;;;;;;;;;;;;;5053507;28;19912;-62
2023/03/23 07:53:23;;;;;;;;;;;;;;;;;;5053588;28;20003;-61
2023/03/23 07:55:48;;;;;;;;;;;;;;;;;;5053767;28;19959;-58
2023/03/23 07:58:18;;;;;;;;;;;;;;;;;;5054072;28;19952;-61
2023/03/23 08:00:45;;;;;;;;;;;;;;;;;;5054480;28;19958;-62
2023/03/23 08:03:12;;;;;;;;;;;;;;;;;;5035618;28;19952;-62
2023/03/23 08:05:38;;;;;;;;;;;;;;;;;;5053801;28;19916;-61
2023/03/23 08:08:04;;;;;;;;;;;;;;;;;;5053936;28;19908;-62
2023/03/23 08:10:30;;;;;;;;;;;;;;;;;;5053500;28;19909;-61
2023/03/23 08:12:56;;;;;;;;;;;;;;;;;;5036224;28;19960;-63
2023/03/23 08:15:22;;;;;;;;;;;;;;;;;;5053603;28;19911;-61
2023/03/23 08:17:48;;;;;;;;;;;;;;;;;;5053556;28;19908;-60
2023/03/23 08:20:14;;;;;;;;;;;;;;;;;;5053680;28;20411;-58
2023/03/23 08:22:40;;;;;;;;;;;;;;;;;;5053334;28;20288;-61
2023/03/23 08:25:06;;;;;;;;;;;;;;;;;;5052992;28;19913;-62
2023/03/23 08:27:32;;;;;;;;;;;;;;;;;;5035611;28;19908;-61
2023/03/23 08:29:59;;;;;;;;;;;;;;;;;;5052709;28;19943;-60
2023/03/23 08:32:25;;;;;;;;;;;;;;;;;;5053306;28;19912;-61
2023/03/23 08:34:50;;;;;;;;;;;;;;;;;;5035239;28;19909;-63
2023/03/23 08:37:16;;;;;;;;;;;;;;;;;;5053184;28;20284;-59
2023/03/23 08:39:45;;;;;;;;;;;;;;;;;;5053034;28;19912;-63
2023/03/23 08:42:11;;;;;;;;;;;;;;;;;;5053603;28;19939;-61
2023/03/23 08:44:37;;;;;;;;;;;;;;;;;;5052855;28;19908;-62
2023/03/23 08:47:04;;;;;;;;;;;;;;;;;;5052956;28;19970;-59
2023/03/23 08:49:32;;;;;;;;;;;;;;;;;;5053022;28;20027;-60
2023/03/23 08:51:58;;;;;;;;;;;;;;;;;;5033719;28;19962;-60
2023/03/23 08:54:24;;;;;;;;;;;;;;;;;;5052560;28;19920;-59
2023/03/23 08:56:50;;;;;;;;;;;;;;;;;;5052436;28;19904;-62
2023/03/23 08:59:16;;;;;;;;;;;;;;;;;;5052383;28;19996;-60
2023/03/23 09:01:42;;;;;;;;;;;;;;;;;;5034188;28;19963;-62
2023/03/23 09:04:08;;;;;;;;;;;;;;;;;;5052313;28;19911;-61
2023/03/23 09:06:34;;;;;;;;;;;;;;;;;;5052329;28;19912;-62
2023/03/23 09:09:01;;;;;;;;;;;;;;;;;;5053467;28;19955;-60
2023/03/23 09:11:27;;;;;;;;;;;;;;;;;;5037239;28;20383;-62
2023/03/23 09:13:53;;;;;;;;;;;;;;;;;;5035388;28;19901;-64
2023/03/23 09:16:19;;;;;;;;;;;;;;;;;;5053689;28;19904;-63
2023/03/23 09:18:46;;;;;;;;;;;;;;;;;;5034640;28;19955;-62
2023/03/23 09:21:12;;;;;;;;;;;;;;;;;;5056966;28;19905;-61
2023/03/23 09:23:38;;;;;;;;;;;;;;;;;;5036723;28;19911;-63
2023/03/23 09:26:04;;;;;;;;;;;;;;;;;;5034820;28;20011;-61
2023/03/23 09:28:31;;;;;;;;;;;;;;;;;;5052643;28;19996;-63
2023/03/23 09:30:57;;;;;;;;;;;;;;;;;;5062069;28;19904;-63
2023/03/23 09:33:23;;;;;;;;;;;;;;;;;;5054279;28;20472;-63
2023/03/23 09:35:49;;;;;;;;;;;;;;;;;;5068180;28;19919;-60
2023/03/23 09:38:15;;;;;;;;;;;;;;;;;;5072456;28;20217;-62
2023/03/23 09:40:46;;;;;;;;;;;;;;;;;;5054569;28;19905;-63
2023/03/23 09:43:11;;;;;;;;;;;;;;;;;;5072046;28;19920;-64
2023/03/23 09:45:38;;;;;;;;;;;;;;;;;;5054446;28;19908;-64
2023/03/23 09:48:04;;;;;;;;;;;;;;;;;;5054550;28;19908;-63
2023/03/23 09:50:32;;;;;;;;;;;;;;;;;;5072987;28;19911;-63
2023/03/23 09:52:58;;;;;;;;;;;;;;;;;;5072344;28;19951;-65
2023/03/23 09:55:25;;;;;;;;;;;;;;;;;;5071955;28;19909;-63
2023/03/23 09:57:51;;;;;;;;;;;;;;;;;;5072157;28;19908;-61
2023/03/23 10:00:17;;;;;;;;;;;;;;;;;;5056162;28;19904;-63
2023/03/23 10:02:46;;;;;;;;;;;;;;;;;;5054195;28;19911;-62
2023/03/23 10:05:12;;;;;;;;;;;;;;;;;;5071804;28;19901;-56
2023/03/23 10:07:38;;;;;;;;;;;;;;;;;;5071983;28;19908;-61
2023/03/23 10:10:05;;;;;;;;;;;;;;;;;;5071765;28;19904;-60
2023/03/23 10:12:31;;;;;;;;;;;;;;;;;;5071771;28;20331;-60
2023/03/23 10:14:58;;;;;;;;;;;;;;;;;;5071799;28;19904;-60
2023/03/23 10:17:24;;;;;;;;;;;;;;;;;;5054152;28;19905;-62
2023/03/23 10:19:50;;;;;;;;;;;;;;;;;;5049544;28;19916;-60
2023/03/23 10:22:16;;;;;;;;;;;;;;;;;;5034445;28;19908;-61
2023/03/23 10:24:42;;;;;;;;;;;;;;;;;;5047444;28;19966;-57
2023/03/23 10:27:08;;;;;;;;;;;;;;;;;;5045970;28;19982;-57
2023/03/23 10:29:34;;;;;;;;;;;;;;;;;;5034271;28;19954;-60
2023/03/23 10:32:01;;;;;;;;;;;;;;;;;;5034251;28;20080;-61
2023/03/23 10:34:27;;;;;;;;;;;;;;;;;;5052175;28;19932;-61
2023/03/23 10:36:53;;;;;;;;;;;;;;;;;;5051978;28;19908;-59
2023/03/23 10:39:19;;;;;;;;;;;;;;;;;;5052558;28;19936;-56
2023/03/23 10:41:45;;;;;;;;;;;;;;;;;;5033925;28;20293;-57
2023/03/23 10:44:12;;;;;;;;;;;;;;;;;;5051958;28;19999;-56
2023/03/23 10:46:38;;;;;;;;;;;;;;;;;;5051811;28;19968;-58
2023/03/23 10:49:04;;;;;;;;;;;;;;;;;;5052085;28;19912;-57
2023/03/23 10:51:30;;;;;;;;;;;;;;;;;;5034324;28;19928;-60
2023/03/23 10:53:57;;;;;;;;;;;;;;;;;;5052459;28;19936;-61
2023/03/23 10:56:23;;;;;;;;;;;;;;;;;;5058843;28;19974;-58
2023/03/23 10:58:49;;;;;;;;;;;;;;;;;;5056182;28;19908;-60
2023/03/23 11:01:15;;;;;;;;;;;;;;;;;;5056146;28;19911;-62
2023/03/23 11:03:41;;;;;;;;;;;;;;;;;;5055314;28;20533;-60
2023/03/23 11:06:08;;;;;;;;;;;;;;;;;;5055071;28;19905;-61
2023/03/23 11:08:34;;;;;;;;;;;;;;;;;;5055475;28;20051;-61
2023/03/23 11:11:00;;;;;;;;;;;;;;;;;;5037104;28;19954;-59
2023/03/23 11:13:26;;;;;;;;;;;;;;;;;;5036638;28;19912;-59
2023/03/23 11:15:52;;;;;;;;;;;;;;;;;;5054882;28;20293;-58
2023/03/23 11:18:18;;;;;;;;;;;;;;;;;;5054687;28;19917;-58
2023/03/23 11:20:44;;;;;;;;;;;;;;;;;;5055300;28;19940;-59
2023/03/23 11:23:10;;;;;;;;;;;;;;;;;;5054966;28;19905;-61
2023/03/23 11:25:36;;;;;;;;;;;;;;;;;;5038726;28;19913;-60
2023/03/23 11:28:02;;;;;;;;;;;;;;;;;;5055872;28;19976;-57
2023/03/23 11:30:28;;;;;;;;;;;;;;;;;;5055656;28;19905;-60
2023/03/23 11:32:54;;;;;;;;;;;;;;;;;;5054796;28;19908;-61
2023/03/23 11:35:20;;;;;;;;;;;;;;;;;;5036215;28;19953;-57
2023/03/23 11:37:47;;;;;;;;;;;;;;;;;;5036413;28;19958;-60
2023/03/23 11:40:14;;;;;;;;;;;;;;;;;;5036659;28;19904;-62
2023/03/23 11:42:40;;;;;;;;;;;;;;;;;;5036249;28;20003;-59
2023/03/23 11:45:07;;;;;;;;;;;;;;;;;;5036052;28;19958;-60
2023/03/23 11:47:33;;;;;;;;;;;;;;;;;;5054633;28;19904;-58
2023/03/23 11:49:59;;;;;;;;;;;;;;;;;;5036185;28;19935;-61
2023/03/23 11:52:25;;;;;;;;;;;;;;;;;;5054356;28;19905;-58
2023/03/23 11:54:51;;;;;;;;;;;;;;;;;;5054156;28;19911;-59
2023/03/23 11:57:18;;;;;;;;;;;;;;;;;;5037139;28;19909;-60
2023/03/23 11:59:44;;;;;;;;;;;;;;;;;;5054123;28;19966;-61
2023/03/23 12:02:10;;;;;;;;;;;;;;;;;;5053745;28;19924;-64
2023/03/23 12:04:35;;;;;;;;;;;;;;;;;;5053572;28;19928;-60
2023/03/23 12:07:01;;;;;;;;;;;;;;;;;;5036247;28;20011;-58
2023/03/23 12:09:27;;;;;;;;;;;;;;;;;;5036093;28;19917;-61
2023/03/23 12:11:53;;;;;;;;;;;;;;;;;;5053604;28;20288;-62
2023/03/23 12:14:20;;;;;;;;;;;;;;;;;;5053345;28;19912;-56
2023/03/23 12:16:46;;;;;;;;;;;;;;;;;;5035535;28;19928;-62
2023/03/23 12:19:12;;;;;;;;;;;;;;;;;;5053391;28;19909;-63
2023/03/23 12:21:37;;;;;;;;;;;;;;;;;;5053151;28;19915;-60
2023/03/23 12:24:04;;;;;;;;;;;;;;;;;;5034948;28;20027;-61
2023/03/23 12:26:30;;;;;;;;;;;;;;;;;;5031104;28;19913;-61
2023/03/23 12:28:56;;;;;;;;;;;;;;;;;;5078550;22;19931;-61
2023/03/23 12:31:22;;;;;;;;;;;;;;;;;;5071824;28;19980;-60
2023/03/23 12:33:48;;;;;;;;;;;;;;;;;;5071454;28;19931;-62
2023/03/23 12:36:14;;;;;;;;;;;;;;;;;;5071693;28;19908;-58
2023/03/23 12:38:40;;;;;;;;;;;;;;;;;;5071448;28;20326;-54
2023/03/23 12:41:07;;;;;;;;;;;;;;;;;;5064834;28;19939;-57
2023/03/23 12:43:33;;;;;;;;;;;;;;;;;;5059500;28;19912;-58
2023/03/23 12:45:59;;;;;;;;;;;;;;;;;;5070326;28;20260;-61
2023/03/23 12:48:25;;;;;;;;;;;;;;;;;;5053513;28;19909;-57
2023/03/23 12:50:52;;;;;;;;;;;;;;;;;;5071545;28;19905;-62
2023/03/23 12:53:18;;;;;;;;;;;;;;;;;;5071239;28;19957;-60
2023/03/23 12:55:44;;;;;;;;;;;;;;;;;;5071220;28;20323;-61
2023/03/23 12:58:10;;;;;;;;;;;;;;;;;;5071568;28;19916;-62
2023/03/23 13:00:37;;;;;;;;;;;;;;;;;;5071320;28;20328;-60
2023/03/23 13:03:03;;;;;;;;;;;;;;;;;;5071174;28;19904;-59
2023/03/23 13:05:28;;;;;;;;;;;;;;;;;;5071399;28;19905;-61
2023/03/23 13:07:55;;;;;;;;;;;;;;;;;;5053327;28;20277;-62
2023/03/23 13:10:21;;;;;;;;;;;;;;;;;;5071305;28;19904;-57
2023/03/23 13:12:47;;;;;;;;;;;;;;;;;;5071015;28;20272;-61
2023/03/23 13:15:13;;;;;;;;;;;;;;;;;;5071029;28;19998;-60
2023/03/23 13:17:39;;;;;;;;;;;;;;;;;;5070764;28;19969;-60
2023/03/23 13:20:12;;;;;;;;;;;;;;;;;;5064092;28;19909;-62
2023/03/23 13:22:39;;;;;;;;;;;;;;;;;;5050815;28;19912;-58
2023/03/23 13:25:05;;;;;;;;;;;;;;;;;;5032487;28;20353;-56
2023/03/23 13:27:31;;;;;;;;;;;;;;;;;;5050362;28;19978;-58
2023/03/23 13:29:57;;;;;;;;;;;;;;;;;;5033137;28;20304;-60
2023/03/23 13:32:23;;;;;;;;;;;;;;;;;;5032703;28;19905;-62
2023/03/23 13:34:49;;;;;;;;;;;;;;;;;;5050284;28;19955;-62
2023/03/23 13:37:16;;;;;;;;;;;;;;;;;;5032630;28;19995;-60
2023/03/23 13:39:42;;;;;;;;;;;;;;;;;;5032456;28;19923;-60
2023/03/23 13:42:08;;;;;;;;;;;;;;;;;;5050313;28;19904;-59
2023/03/23 13:44:34;;;;;;;;;;;;;;;;;;5050093;28;19980;-59
2023/03/23 13:47:00;;;;;;;;;;;;;;;;;;5050378;28;19904;-54
2023/03/23 13:49:27;;;;;;;;;;;;;;;;;;5050189;28;19987;-60
2023/03/23 13:51:54;;;;;;;;;;;;;;;;;;5050343;28;20357;-59
2023/03/23 13:54:20;;;;;;;;;;;;;;;;;;5050418;28;19986;-59
2023/03/23 13:56:46;;;;;;;;;;;;;;;;;;5032734;28;19905;-62
2023/03/23 13:59:12;;;;;;;;;;;;;;;;;;5049957;28;19921;-59
2023/03/23 14:01:41;;;;;;;;;;;;;;;;;;5050286;28;20392;-59
2023/03/23 14:04:06;;;;;;;;;;;;;;;;;;5050188;28;19909;-61
2023/03/23 14:06:32;;;;;;;;;;;;;;;;;;5050169;28;19905;-60
2023/03/23 14:08:58;;;;;;;;;;;;;;;;;;5050208;28;19904;-58
2023/03/23 14:11:25;;;;;;;;;;;;;;;;;;5050477;28;20296;-58
2023/03/23 14:13:51;;;;;;;;;;;;;;;;;;5051433;28;20011;-60
2023/03/23 14:16:17;;;;;;;;;;;;;;;;;;5040853;28;19991;-59
2023/03/23 14:18:44;;;;;;;;;;;;;;;;;;5042232;28;19909;-60
2023/03/23 14:21:09;;;;;;;;;;;;;;;;;;5044933;28;20364;-58
2023/03/23 14:23:35;;;;;;;;;;;;;;;;;;5050227;28;20030;-61
2023/03/23 14:26:09;;;;;;;;;;;;;;;;;;5036056;28;19904;-61
2023/03/23 14:28:35;;;;;;;;;;;;;;;;;;5062535;28;19932;-59
2023/03/23 14:31:01;;;;;;;;;;;;;;;;;;5074607;28;20302;-57
2023/03/23 14:33:27;;;;;;;;;;;;;;;;;;5074310;28;19912;-60
2023/03/23 14:35:53;;;;;;;;;;;;;;;;;;5074451;28;20422;-54
2023/03/23 14:38:19;;;;;;;;;;;;;;;;;;5074803;28;19909;-57
2023/03/23 14:40:45;;;;;;;;;;;;;;;;;;5056816;28;19912;-59
2023/03/23 14:43:11;;;;;;;;;;;;;;;;;;4719483;28;10000413;-56
2023/03/23 14:45:37;;;;;;;;;;;;;;;;;;5049742;28;20722;-60
2023/03/23 14:48:03;;;;;;;;;;;;;;;;;;5061516;28;19904;-61
2023/03/23 14:50:29;;;;;;;;;;;;;;;;;;5071007;28;19908;-62
2023/03/23 14:52:55;;;;;;;;;;;;;;;;;;5060393;28;19909;-58
2023/03/23 14:55:21;;;;;;;;;;;;;;;;;;5051203;28;19904;-56
2023/03/23 14:57:47;;;;;;;;;;;;;;;;;;5032675;28;19915;-55
2023/03/23 15:00:14;;;;;;;;;;;;;;;;;;5050665;28;19909;-60
2023/03/23 15:02:40;;;;;;;;;;;;;;;;;;5030326;28;19931;-58
2023/03/23 15:05:06;;;;;;;;;;;;;;;;;;5030393;28;19909;-56
2023/03/23 15:07:32;;;;;;;;;;;;;;;;;;5030409;28;19905;-59
2023/03/23 15:09:58;;;;;;;;;;;;;;;;;;5030372;28;19909;-56
2023/03/23 15:12:24;;;;;;;;;;;;;;;;;;5012750;28;20003;-57
2023/03/23 15:14:50;;;;;;;;;;;;;;;;;;5029712;28;19916;-59
2023/03/23 15:17:15;;;;;;;;;;;;;;;;;;5031367;28;20284;-63
2023/03/23 15:19:41;;;;;;;;;;;;;;;;;;5029035;28;19913;-62
2023/03/23 15:22:07;;;;;;;;;;;;;;;;;;5030670;28;20511;-59
2023/03/23 15:24:34;;;;;;;;;;;;;;;;;;5013864;28;20525;-61
2023/03/23 15:27:00;;;;;;;;;;;;;;;;;;5032187;28;19905;-60
2023/03/23 15:29:25;;;;;;;;;;;;;;;;;;5032786;28;19966;-59
2023/03/23 15:31:51;;;;;;;;;;;;;;;;;;5032902;28;20365;-60
2023/03/23 15:34:17;;;;;;;;;;;;;;;;;;5032820;28;19927;-58
2023/03/23 15:36:43;;;;;;;;;;;;;;;;;;5033012;28;19912;-59
2023/03/23 15:39:09;;;;;;;;;;;;;;;;;;5014855;28;19909;-58
2023/03/23 15:41:35;;;;;;;;;;;;;;;;;;5052417;28;19912;-55
2023/03/23 15:44:01;;;;;;;;;;;;;;;;;;5053209;28;19905;-57
2023/03/23 15:46:27;;;;;;;;;;;;;;;;;;5049166;28;19969;-59
2023/03/23 15:48:54;;;;;;;;;;;;;;;;;;5052662;28;20283;-59
2023/03/23 15:51:20;;;;;;;;;;;;;;;;;;5052820;28;19905;-59
2023/03/23 15:53:46;;;;;;;;;;;;;;;;;;5052730;28;19951;-59
2023/03/23 15:56:12;;;;;;;;;;;;;;;;;;5052191;28;19918;-58
2023/03/23 15:58:41;;;;;;;;;;;;;;;;;;5052271;28;19915;-58
2023/03/23 16:01:06;;;;;;;;;;;;;;;;;;5052125;28;20131;-60
2023/03/23 16:03:32;;;;;;;;;;;;;;;;;;5052023;28;19909;-59
2023/03/23 16:05:59;;;;;;;;;;;;;;;;;;5052156;28;19982;-55
2023/03/23 16:08:25;;;;;;;;;;;;;;;;;;5034305;28;20265;-58
2023/03/23 16:10:50;;;;;;;;;;;;;;;;;;5052344;28;19969;-57
2023/03/23 16:13:17;;;;;;;;;;;;;;;;;;5051528;28;20131;-62
2023/03/23 16:15:43;;;;;;;;;;;;;;;;;;5051387;28;20375;-59
2023/03/23 16:18:09;;;;;;;;;;;;;;;;;;4691765;28;10000441;-56
2023/03/23 16:20:35;;;;;;;;;;;;;;;;;;5036119;28;20027;-58
2023/03/23 16:23:01;;;;;;;;;;;;;;;;;;5028921;28;20434;-63
2023/03/23 16:25:27;;;;;;;;;;;;;;;;;;5011113;28;19988;-54
2023/03/23 16:27:53;;;;;;;;;;;;;;;;;;5028895;28;19917;-60
2023/03/23 16:30:19;;;;;;;;;;;;;;;;;;5028624;28;19950;-58
2023/03/23 16:32:45;;;;;;;;;;;;;;;;;;5010873;28;19909;-58
2023/03/23 16:35:11;;;;;;;;;;;;;;;;;;5010775;28;20012;-59
2023/03/23 16:37:37;;;;;;;;;;;;;;;;;;5029017;28;19916;-61
2023/03/23 16:40:03;;;;;;;;;;;;;;;;;;5029011;28;19973;-59